createdAt,value
2019-03-09T00:00:04.256Z,5.60
2019-03-09T00:05:12.623Z,5.80
2019-03-09T00:10:18.483Z,5.80
2019-03-09T00:15:24.882Z,6.23
2019-03-09T00:20:32.319Z,6.10
2019-03-09T00:25:40.257Z,5.43
2019-03-09T00:30:47.835Z,5.17
2019-03-09T00:35:56.691Z,6.67
2019-03-09T00:41:03.666Z,5.53
2019-03-09T00:46:12.546Z,5.73
2019-03-09T00:51:19.069Z,4.20
2019-03-09T00:56:25.038Z,5.47
2019-03-09T01:01:31.682Z,5.10
2019-03-09T01:06:39.985Z,5.20
2019-03-09T01:11:45.860Z,4.37
2019-03-09T01:16:52.558Z,5.00
2019-03-09T01:22:17.772Z,4.33
2019-03-09T01:27:24.815Z,4.03
2019-03-09T01:32:30.804Z,3.77
2019-03-09T01:37:37.432Z,3.70
2019-03-09T01:42:44.078Z,3.63
2019-03-09T01:47:49.823Z,4.27
2019-03-09T01:52:56.307Z,3.23
2019-03-09T01:58:02.954Z,3.43
2019-03-09T02:03:09.682Z,2.70
2019-03-09T02:08:16.498Z,2.90
2019-03-09T02:13:23.397Z,2.93
2019-03-09T02:18:31.348Z,2.93
2019-03-09T02:23:38.217Z,2.50
2019-03-09T02:28:44.094Z,2.57
2019-03-09T02:33:51.507Z,2.50
2019-03-09T02:39:02.668Z,1.90
2019-03-09T02:44:10.616Z,1.90
2019-03-09T02:49:16.847Z,1.67
2019-03-09T02:54:22.722Z,2.13
2019-03-09T02:59:30.885Z,1.70
2019-03-09T03:04:37.636Z,1.73
2019-03-09T03:09:44.230Z,2.00
2019-03-09T03:15:12.090Z,1.70
2019-03-09T03:20:18.099Z,1.80
2019-03-09T03:25:24.961Z,1.90
2019-03-09T03:30:31.475Z,1.70
2019-03-09T03:35:38.249Z,2.07
2019-03-09T03:40:44.493Z,1.90
2019-03-09T03:45:52.146Z,2.07
2019-03-09T03:50:58.714Z,1.97
2019-03-09T03:56:05.504Z,1.70
2019-03-09T04:01:12.518Z,1.80
2019-03-09T04:06:19.604Z,1.67
2019-03-09T04:11:26.191Z,1.80
2019-03-09T04:16:32.455Z,1.50
2019-03-09T04:21:38.902Z,1.70
2019-03-09T04:26:44.777Z,1.80
2019-03-09T04:31:50.689Z,1.77
2019-03-09T04:37:02.463Z,1.60
2019-03-09T04:42:09.408Z,1.63
2019-03-09T04:47:15.906Z,1.90
2019-03-09T04:52:21.519Z,1.27
2019-03-09T04:57:28.107Z,2.53
2019-03-09T05:02:35.750Z,1.50
2019-03-09T05:07:54.631Z,1.70
2019-03-09T05:13:28.900Z,2.00
2019-03-09T05:18:35.631Z,1.60
2019-03-09T05:23:42.113Z,2.23
2019-03-09T05:28:48.135Z,1.73
2019-03-09T05:33:54.164Z,1.80
2019-03-09T05:39:00.978Z,1.77
2019-03-09T05:44:09.389Z,2.30
2019-03-09T05:49:16.383Z,2.20
2019-03-09T05:54:23.429Z,2.00
2019-03-09T05:59:32.152Z,1.50
2019-03-09T06:04:39.142Z,2.63
2019-03-09T06:09:45.254Z,2.63
2019-03-09T06:14:52.532Z,2.53
2019-03-09T06:19:59.304Z,2.53
2019-03-09T06:25:07.474Z,2.47
2019-03-09T06:30:34.484Z,2.37
2019-03-09T06:36:33.388Z,2.23
2019-03-09T06:41:46.956Z,2.63
2019-03-09T06:46:53.709Z,1.93
2019-03-09T06:52:00.760Z,3.10
2019-03-09T06:57:13.852Z,2.37
2019-03-09T07:02:16.020Z,2.33
2019-03-09T07:07:21.990Z,2.50
2019-03-09T07:12:27.936Z,2.40
2019-03-09T07:17:35.796Z,2.57
2019-03-09T07:22:42.579Z,2.60
2019-03-09T07:28:10.309Z,2.77
2019-03-09T07:33:17.418Z,2.50
2019-03-09T07:38:23.341Z,2.43
2019-03-09T07:43:30.098Z,1.73
2019-03-09T07:48:36.927Z,2.30
2019-03-09T07:53:44.814Z,2.50
2019-03-09T07:58:51.711Z,1.50
2019-03-09T08:04:00.459Z,1.60
2019-03-09T08:09:08.526Z,1.57
2019-03-09T08:14:15.078Z,2.20
2019-03-09T08:19:21.826Z,1.83
2019-03-09T08:24:27.810Z,1.30
2019-03-09T08:29:35.204Z,1.80
2019-03-09T08:34:42.657Z,1.63
2019-03-09T08:39:48.625Z,1.57
2019-03-09T08:44:54.644Z,2.10
2019-03-09T08:50:04.964Z,1.10
2019-03-09T08:55:14.457Z,1.20
2019-03-09T09:00:26.344Z,1.43
2019-03-09T09:05:32.303Z,1.40
2019-03-09T09:10:57.595Z,1.60
2019-03-09T09:16:04.910Z,1.00
2019-03-09T09:21:30.194Z,1.10
2019-03-09T09:26:38.387Z,1.10
2019-03-09T09:31:44.407Z,1.00
2019-03-09T09:36:52.027Z,0.90
2019-03-09T09:42:00.150Z,0.70
2019-03-09T09:47:07.044Z,0.90
2019-03-09T09:52:17.968Z,1.17
2019-03-09T10:02:57.791Z,1.20
2019-03-09T10:08:04.794Z,1.00
2019-03-09T10:13:12.008Z,0.90
2019-03-09T10:18:20.107Z,1.00
2019-03-09T10:29:31.516Z,1.20
2019-03-09T10:47:52.692Z,0.90
2019-03-09T11:48:02.231Z,1.40
2019-03-09T11:58:47.434Z,1.30
2019-03-09T12:09:45.420Z,1.30
2019-03-09T12:28:36.595Z,1.37
2019-03-09T12:34:06.471Z,1.80
2019-03-09T12:39:21.898Z,1.80
2019-03-09T12:44:48.471Z,1.90
2019-03-09T13:01:45.814Z,1.63
2019-03-09T13:07:24.716Z,1.70
2019-03-09T13:24:35.006Z,1.50
2019-03-09T13:35:44.812Z,1.60
2019-03-09T13:40:53.598Z,1.20
2019-03-09T13:46:08.043Z,1.00
2019-03-09T13:51:17.677Z,1.17
2019-03-09T13:56:24.320Z,1.20
2019-03-09T14:01:31.500Z,1.30
2019-03-09T14:06:39.613Z,1.40
2019-03-09T14:11:51.425Z,1.30
2019-03-09T14:17:22.884Z,1.40
2019-03-09T14:23:11.474Z,1.40
2019-03-09T14:28:30.625Z,1.47
2019-03-09T14:33:37.604Z,1.67
2019-03-09T14:38:51.336Z,1.80
2019-03-09T14:43:58.435Z,2.00
2019-03-09T14:49:05.223Z,2.63
2019-03-09T14:54:11.745Z,1.83
2019-03-09T14:59:19.888Z,2.20
2019-03-09T15:04:32.951Z,2.10
2019-03-09T15:10:11.985Z,2.00
2019-03-09T15:15:22.485Z,1.63
2019-03-09T15:20:29.790Z,1.70
2019-03-09T15:25:37.139Z,1.67
2019-03-09T15:30:44.078Z,2.00
2019-03-09T15:35:51.183Z,2.03
2019-03-09T15:40:57.188Z,1.70
2019-03-09T15:46:05.749Z,1.80
2019-03-09T15:51:30.322Z,1.90
2019-03-09T15:56:45.620Z,1.90
2019-03-09T16:01:55.881Z,1.77
2019-03-09T16:07:09.609Z,1.90
2019-03-09T16:12:17.667Z,1.40
2019-03-09T16:17:27.170Z,1.90
2019-03-09T16:22:34.295Z,1.80
2019-03-09T16:27:42.187Z,1.57
2019-03-09T16:32:54.568Z,1.27
2019-03-09T16:38:01.585Z,1.57
2019-03-09T16:43:13.538Z,1.10
2019-03-09T16:48:22.171Z,0.90
2019-03-09T16:53:28.915Z,1.07
2019-03-09T16:58:35.559Z,1.20
2019-03-09T17:03:50.298Z,0.90
2019-03-09T17:08:57.994Z,0.90
2019-03-09T17:14:05.123Z,1.20
2019-03-09T17:19:17.861Z,1.10
2019-03-09T17:24:29.363Z,1.10
2019-03-09T17:29:46.291Z,1.13
2019-03-09T17:41:06.734Z,1.17
2019-03-09T17:46:44.384Z,1.03
2019-03-09T17:52:05.431Z,1.10
2019-03-09T17:57:19.956Z,0.83
2019-03-09T18:08:05.521Z,1.10
2019-03-09T18:13:18.823Z,1.30
2019-03-09T18:18:28.894Z,1.40
2019-03-09T18:23:35.649Z,1.40
2019-03-09T18:28:42.426Z,0.90
2019-03-09T18:34:00.190Z,1.07
2019-03-09T18:39:09.389Z,1.07
2019-03-09T18:44:26.343Z,1.20
2019-03-09T18:49:33.282Z,1.00
2019-03-09T18:55:08.920Z,1.23
2019-03-09T19:00:17.568Z,1.50
2019-03-09T19:05:24.303Z,1.00
2019-03-09T19:10:32.251Z,1.17
2019-03-09T19:15:38.977Z,0.90
2019-03-09T19:20:53.192Z,0.60
2019-03-09T19:26:03.490Z,0.70
2019-03-09T19:31:11.296Z,0.60
2019-03-09T19:36:29.181Z,0.93
2019-03-09T19:41:39.927Z,0.83
2019-03-09T19:46:47.387Z,1.07
2019-03-09T19:51:56.578Z,0.90
2019-03-09T19:57:07.521Z,1.50
2019-03-09T20:02:14.294Z,1.63
2019-03-09T20:07:21.178Z,1.33
2019-03-09T20:12:31.231Z,1.10
2019-03-09T20:17:37.856Z,1.50
2019-03-09T20:22:43.892Z,1.50
2019-03-09T20:27:51.993Z,1.53
2019-03-09T20:32:59.406Z,1.43
2019-03-09T20:38:05.842Z,1.50
2019-03-09T20:43:12.859Z,1.17
2019-03-09T20:48:33.536Z,1.47
2019-03-09T20:54:09.200Z,1.70
2019-03-09T20:59:16.018Z,1.27
2019-03-09T21:04:22.464Z,1.60
2019-03-09T21:09:30.418Z,1.33
2019-03-09T21:14:50.957Z,1.60
2019-03-09T21:19:59.539Z,1.80
2019-03-09T21:25:07.973Z,2.27
2019-03-09T21:30:28.251Z,1.73
2019-03-09T21:35:46.348Z,1.73
2019-03-09T21:40:54.806Z,2.20
2019-03-09T21:46:01.654Z,2.13
2019-03-09T21:51:08.542Z,2.43
2019-03-09T21:56:15.328Z,2.00
2019-03-09T22:01:21.717Z,2.40
2019-03-09T22:06:39.422Z,1.80
2019-03-09T22:11:49.496Z,2.17
2019-03-09T22:17:00.339Z,1.80
2019-03-09T22:22:12.070Z,1.70
2019-03-09T22:32:45.562Z,1.87
2019-03-09T22:37:57.333Z,1.70
2019-03-09T23:25:06.281Z,2.30
2019-03-09T23:49:20.140Z,1.93
